KOLY/OLY METAR and TAF weather

Enter ICAO airport designator
Station Type Date Time Source
KOLY METAR 2021/07/26 17:15 UTC NOAA

KOLY 261715Z AUTO 02005KT 10SM CLR 30/19 A3004 RMK AO2 T02970187


Station Type Date Time Source
KOLY Decoded METAR 2021/07/26 17:15 UTC NOAA

Olney-Noble, Olney-Noble Airport, IL, United States (KOLY) 38-43-19N 088-10-35W
Jul 26, 2021 - 01:15 PM EDT / 2021.07.26 1715 UTC
Wind: from the NNE (020 degrees) at 6 MPH (5 KT):0
Visibility: 10 mile(s):0
Sky conditions: clear
Temperature: 85.5 F (29.7 C)
Dew Point: 65.7 F (18.7 C)
Relative Humidity: 51%
Pressure (altimeter): 30.04 in. Hg (1017 hPa)
ob: KOLY 261715Z AUTO 02005KT 10SM CLR 30/19 A3004 RMK AO2 T02970187
cycle: 17

Station Type Date Time Source
KOLY TAF UTC NOAA

Error!

Example: see airport list